createdAt,value
2019-05-11T00:01:30.145Z,100749.24
2019-05-11T00:03:58.835Z,100748.23
2019-05-11T00:06:27.596Z,100753.73
2019-05-11T00:08:56.297Z,100757.33
2019-05-11T00:11:24.906Z,100754.83
2019-05-11T00:13:53.617Z,100756.91
2019-05-11T00:16:22.331Z,100754.52
2019-05-11T00:18:50.984Z,100756.27
2019-05-11T00:21:19.757Z,100750.48
2019-05-11T00:23:48.497Z,100756.91
2019-05-11T00:26:17.615Z,100761.53
2019-05-11T00:28:46.263Z,100764.31
2019-05-11T00:31:14.954Z,100758.97
2019-05-11T00:33:43.666Z,100747.45
2019-05-11T00:36:12.339Z,100749.44
2019-05-11T00:38:40.976Z,100750.49
2019-05-11T00:41:09.715Z,100751.55
2019-05-11T00:43:38.437Z,100756.10
2019-05-11T00:46:07.084Z,100754.32
2019-05-11T00:48:36.019Z,100756.77
2019-05-11T00:51:04.791Z,100758.58
2019-05-11T00:53:33.702Z,100749.44
2019-05-11T00:56:03.799Z,100755.07
2019-05-11T00:58:35.541Z,100749.58
2019-05-11T01:01:04.208Z,100742.09
2019-05-11T01:03:32.936Z,100741.92
2019-05-11T01:06:04.384Z,100741.22
2019-05-11T01:08:34.691Z,100731.53
2019-05-11T01:11:06.149Z,100732.77
2019-05-11T01:13:34.761Z,100729.84
2019-05-11T01:16:03.525Z,100721.16
2019-05-11T01:18:33.683Z,100727.43
2019-05-11T01:21:03.828Z,100726.34
2019-05-11T01:23:35.927Z,100723.92
2019-05-11T01:26:04.748Z,100726.38
2019-05-11T01:28:33.417Z,100721.89
2019-05-11T01:31:02.399Z,100720.42
2019-05-11T01:33:32.765Z,100725.05
2019-05-11T01:36:01.699Z,100720.59
2019-05-11T01:38:30.394Z,100721.87
2019-05-11T01:40:59.372Z,100732.52
2019-05-11T01:43:28.451Z,100729.61
2019-05-11T01:45:57.099Z,100728.09
2019-05-11T01:48:25.773Z,100730.50
2019-05-11T01:50:54.473Z,100727.56
2019-05-11T01:53:23.086Z,100733.14
2019-05-11T01:55:51.801Z,100730.89
2019-05-11T01:58:20.917Z,100732.18
2019-05-11T02:00:49.570Z,100739.45
2019-05-11T02:03:18.255Z,100739.73
2019-05-11T02:05:46.905Z,100729.95
2019-05-11T02:08:15.836Z,100729.79
2019-05-11T02:10:44.486Z,100712.38
2019-05-11T02:13:13.135Z,100701.33
2019-05-11T02:15:42.075Z,100700.99
2019-05-11T02:18:11.006Z,100699.13
2019-05-11T02:20:39.751Z,100695.72
2019-05-11T02:23:08.769Z,100698.44
2019-05-11T02:25:37.503Z,100701.70
2019-05-11T02:28:06.227Z,100693.93
2019-05-11T02:30:34.949Z,100686.50
2019-05-11T02:33:03.674Z,100674.19
2019-05-11T02:35:33.765Z,100671.55
2019-05-11T02:38:03.884Z,100669.02
2019-05-11T02:40:36.010Z,100680.66
2019-05-11T02:43:04.735Z,100685.98
2019-05-11T02:45:41.348Z,100687.58
2019-05-11T02:48:10.304Z,100695.09
2019-05-11T02:50:39.549Z,100696.32
2019-05-11T02:53:09.598Z,100691.03
2019-05-11T02:55:38.257Z,100699.50
2019-05-11T02:58:08.223Z,100700.58
2019-05-11T03:00:39.847Z,100701.15
2019-05-11T03:03:08.558Z,100704.33
2019-05-11T03:05:37.362Z,100716.81
2019-05-11T03:08:06.243Z,100718.00
2019-05-11T03:10:34.921Z,100718.00
2019-05-11T03:13:03.744Z,100732.39
2019-05-11T03:15:35.573Z,100727.27
2019-05-11T03:18:04.237Z,100721.22
2019-05-11T03:20:33.095Z,100717.33
2019-05-11T03:23:04.983Z,100717.33
2019-05-11T03:25:33.921Z,100723.68
2019-05-11T03:28:02.570Z,100718.31
2019-05-11T03:30:32.927Z,100721.73
2019-05-11T03:33:04.664Z,100721.61
2019-05-11T03:35:33.519Z,100721.75
2019-05-11T03:38:03.702Z,100730.48
2019-05-11T03:40:35.129Z,100736.00
2019-05-11T03:43:03.892Z,100748.00
2019-05-11T03:45:33.599Z,100749.27
2019-05-11T03:48:04.017Z,100747.02
2019-05-11T03:50:32.681Z,100744.36
2019-05-11T03:53:01.417Z,100747.62
2019-05-11T03:55:31.183Z,100744.16
2019-05-11T03:57:59.797Z,100744.61
2019-05-11T04:00:28.482Z,100736.97
2019-05-11T04:02:57.349Z,100738.44
2019-05-11T04:05:26.013Z,100736.48
2019-05-11T04:07:54.664Z,100730.83
2019-05-11T04:10:25.294Z,100731.67
2019-05-11T04:12:53.872Z,100733.13
2019-05-11T04:15:22.897Z,100736.42
2019-05-11T04:17:51.550Z,100746.67
2019-05-11T04:20:20.330Z,100759.80
2019-05-11T04:22:49.043Z,100769.45
2019-05-11T04:25:17.715Z,100761.91
2019-05-11T04:27:46.356Z,100761.67
2019-05-11T04:30:15.097Z,100767.56
2019-05-11T04:32:43.725Z,100767.50
2019-05-11T04:35:12.753Z,100764.60
2019-05-11T04:37:41.399Z,100764.25
2019-05-11T04:40:10.302Z,100757.73
2019-05-11T04:42:53.989Z,100750.34
2019-05-11T04:45:09.509Z,100745.52
2019-05-11T04:47:38.438Z,100743.91
2019-05-11T04:50:08.245Z,100749.98
2019-05-11T04:52:36.950Z,100738.17
2019-05-11T04:55:06.117Z,100736.39
2019-05-11T04:57:34.764Z,100726.38
2019-05-11T05:00:03.535Z,100726.95
2019-05-11T05:02:33.769Z,100722.22
2019-05-11T05:05:05.804Z,100722.06
2019-05-11T05:07:34.457Z,100722.91
2019-05-11T05:10:05.353Z,100728.19
2019-05-11T05:12:34.373Z,100727.41
2019-05-11T05:15:05.332Z,100728.58
2019-05-11T05:17:34.297Z,100729.59
2019-05-11T05:20:07.702Z,100739.61
2019-05-11T05:22:37.130Z,100731.88
2019-05-11T05:25:07.453Z,100737.38
2019-05-11T05:27:36.090Z,100735.72
2019-05-11T05:30:06.168Z,100733.70
2019-05-11T05:32:34.820Z,100735.82
2019-05-11T05:35:03.783Z,100734.52
2019-05-11T05:37:35.481Z,100734.72
2019-05-11T05:40:05.871Z,100742.63
2019-05-11T05:42:34.984Z,100738.41
2019-05-11T05:45:04.364Z,100739.25
2019-05-11T05:47:34.800Z,100732.45
2019-05-11T05:50:05.169Z,100739.52
2019-05-11T05:52:37.117Z,100740.11
2019-05-11T05:55:07.278Z,100733.07
2019-05-11T05:57:37.123Z,100733.51
2019-05-11T06:00:06.406Z,100731.02
2019-05-11T06:02:35.549Z,100733.42
2019-05-11T06:05:06.074Z,100738.36
2019-05-11T06:07:34.721Z,100737.23
2019-05-11T06:10:07.949Z,100740.33
2019-05-11T06:12:36.662Z,100740.86
2019-05-11T06:15:07.216Z,100739.05
2019-05-11T06:17:35.944Z,100741.97
2019-05-11T06:20:06.224Z,100737.12
2019-05-11T06:22:35.205Z,100734.55
2019-05-11T06:25:04.395Z,100732.56
2019-05-11T06:27:34.482Z,100741.94
2019-05-11T06:30:06.153Z,100737.26
2019-05-11T06:32:35.008Z,100733.33
2019-05-11T06:35:04.684Z,100734.75
2019-05-11T06:37:36.502Z,100722.20
2019-05-11T06:40:08.164Z,100728.97
2019-05-11T06:42:36.822Z,100725.30
2019-05-11T06:45:09.121Z,100733.29
2019-05-11T06:47:38.084Z,100731.36
2019-05-11T06:50:06.955Z,100732.50
2019-05-11T06:52:35.686Z,100732.86
2019-05-11T06:55:04.814Z,100729.58
2019-05-11T06:57:33.479Z,100730.96
2019-05-11T07:00:02.609Z,100735.94
2019-05-11T07:02:33.172Z,100731.83
2019-05-11T07:05:04.553Z,100730.53
2019-05-11T07:07:46.889Z,100726.31
2019-05-11T07:10:07.337Z,100729.09
2019-05-11T07:12:36.109Z,100730.18
2019-05-11T07:15:06.261Z,100716.73
2019-05-11T07:17:34.979Z,100721.28
2019-05-11T07:20:04.613Z,100725.95
2019-05-11T07:22:36.515Z,100720.97
2019-05-11T07:25:07.375Z,100715.88
2019-05-11T07:27:36.005Z,100718.12
2019-05-11T07:30:08.972Z,100714.98
2019-05-11T07:32:38.304Z,100717.09
2019-05-11T07:35:08.480Z,100719.77
2019-05-11T07:37:38.494Z,100719.50
2019-05-11T07:40:08.258Z,100721.51
2019-05-11T07:42:38.025Z,100722.81
2019-05-11T07:45:09.128Z,100721.63
2019-05-11T07:47:38.234Z,100718.05
2019-05-11T07:50:08.433Z,100726.95
2019-05-11T07:52:37.928Z,100719.49
2019-05-11T07:55:08.556Z,100719.09
2019-05-11T07:57:39.066Z,100723.64
2019-05-11T08:00:08.224Z,100716.14
2019-05-11T08:02:38.665Z,100711.63
2019-05-11T08:05:08.716Z,100723.67
2019-05-11T08:07:37.938Z,100712.90
2019-05-11T08:10:08.441Z,100716.36
2019-05-11T08:12:39.121Z,100724.16
2019-05-11T08:15:12.961Z,100715.98
2019-05-11T08:17:38.537Z,100727.05
2019-05-11T08:20:08.420Z,100715.83
2019-05-11T08:22:37.822Z,100719.36
2019-05-11T08:25:09.259Z,100710.17
2019-05-11T08:27:38.028Z,100718.84
2019-05-11T08:30:10.036Z,100718.52
2019-05-11T08:32:38.827Z,100709.30
2019-05-11T08:35:09.078Z,100712.48
2019-05-11T08:37:38.785Z,100714.44
2019-05-11T08:40:08.129Z,100714.27
2019-05-11T08:42:37.883Z,100706.41
2019-05-11T08:45:19.537Z,100706.16
2019-05-11T08:47:37.712Z,100702.56
2019-05-11T08:50:08.137Z,100696.29
2019-05-11T08:52:38.679Z,100699.31
2019-05-11T08:55:08.377Z,100696.28
2019-05-11T08:57:38.793Z,100697.02
2019-05-11T09:00:09.381Z,100701.80
2019-05-11T09:02:38.433Z,100696.84
2019-05-11T09:05:08.300Z,100691.32
2019-05-11T09:07:38.370Z,100691.98
2019-05-11T09:10:08.271Z,100690.55
2019-05-11T09:12:38.220Z,100693.58
2019-05-11T09:15:08.771Z,100690.94
2019-05-11T09:17:38.259Z,100690.56
2019-05-11T09:20:08.709Z,100690.17
2019-05-11T09:22:38.246Z,100695.13
2019-05-11T09:25:08.936Z,100696.78
2019-05-11T09:27:37.846Z,100695.17
2019-05-11T09:30:08.387Z,100691.95
2019-05-11T09:32:38.436Z,100695.17
2019-05-11T09:35:08.346Z,100690.15
2019-05-11T09:37:38.080Z,100692.37
2019-05-11T09:40:07.900Z,100683.76
2019-05-11T09:42:38.844Z,100690.98
2019-05-11T09:45:08.187Z,100687.37
2019-05-11T09:47:38.610Z,100685.73
2019-05-11T09:50:08.561Z,100686.17
2019-05-11T09:52:38.538Z,100687.19
2019-05-11T09:55:08.909Z,100684.48
2019-05-11T09:57:38.251Z,100686.12
2019-05-11T10:00:08.728Z,100688.25
2019-05-11T10:02:38.502Z,100683.11
2019-05-11T10:05:08.533Z,100683.70
2019-05-11T10:07:38.007Z,100681.78
2019-05-11T10:10:09.303Z,100682.91
2019-05-11T10:12:38.431Z,100685.67
2019-05-11T10:15:08.581Z,100684.61
2019-05-11T10:17:38.240Z,100685.50
2019-05-11T10:20:09.225Z,100680.39
2019-05-11T10:22:38.631Z,100676.69
2019-05-11T10:25:09.232Z,100674.06
2019-05-11T10:27:38.445Z,100672.78
2019-05-11T10:30:08.547Z,100670.83
2019-05-11T10:32:38.025Z,100668.31
2019-05-11T10:35:07.998Z,100660.48
2019-05-11T10:37:38.963Z,100666.38
2019-05-11T10:40:09.553Z,100673.80
2019-05-11T10:42:38.020Z,100673.19
2019-05-11T10:45:09.062Z,100671.45
2019-05-11T10:47:38.382Z,100671.98
2019-05-11T10:50:08.722Z,100664.43
2019-05-11T10:52:38.026Z,100665.13
2019-05-11T10:55:08.675Z,100666.52
2019-05-11T10:57:38.614Z,100659.42
2019-05-11T11:00:11.334Z,100667.25
2019-05-11T11:02:40.267Z,100662.53
2019-05-11T11:05:09.738Z,100667.89
2019-05-11T11:07:38.689Z,100665.33
2019-05-11T11:10:08.870Z,100673.19
2019-05-11T11:12:38.472Z,100666.00
2019-05-11T11:15:08.320Z,100664.73
2019-05-11T11:17:38.203Z,100665.78
2019-05-11T11:20:08.717Z,100664.73
2019-05-11T11:22:43.543Z,100666.20
2019-05-11T11:25:08.113Z,100666.20
2019-05-11T11:27:38.131Z,100665.05
2019-05-11T11:30:09.165Z,100666.12
2019-05-11T11:32:38.478Z,100668.41
2019-05-11T11:35:08.454Z,100659.86
2019-05-11T11:37:38.660Z,100663.13
2019-05-11T11:40:09.561Z,100656.23
2019-05-11T11:42:38.207Z,100662.84
2019-05-11T11:45:09.719Z,100655.73
2019-05-11T11:47:38.634Z,100655.92
2019-05-11T11:50:09.111Z,100656.58
2019-05-11T11:52:38.376Z,100651.38
2019-05-11T11:55:09.460Z,100657.30
2019-05-11T11:57:38.228Z,100667.41
2019-05-11T12:00:09.956Z,100665.05
2019-05-11T12:02:38.971Z,100665.59
2019-05-11T12:05:08.927Z,100669.64
2019-05-11T12:07:38.663Z,100663.86
2019-05-11T12:10:08.696Z,100664.33
2019-05-11T12:12:38.627Z,100661.03
2019-05-11T12:15:08.862Z,100657.20
2019-05-11T12:17:37.899Z,100664.64
2019-05-11T12:20:08.985Z,100663.46
2019-05-11T12:22:38.647Z,100664.33
2019-05-11T12:25:08.140Z,100662.09
2019-05-11T12:27:38.415Z,100662.45
2019-05-11T12:30:09.722Z,100664.24
2019-05-11T12:32:42.736Z,100670.10
2019-05-11T12:35:11.382Z,100661.81
2019-05-11T12:37:40.170Z,100659.17
2019-05-11T12:40:10.898Z,100660.11
2019-05-11T12:42:39.549Z,100658.84
2019-05-11T12:45:09.193Z,100658.91
2019-05-11T12:47:38.569Z,100652.17
2019-05-11T12:50:09.223Z,100660.02
2019-05-11T12:52:38.404Z,100654.11
2019-05-11T12:55:09.358Z,100656.45
2019-05-11T12:57:38.740Z,100660.28
2019-05-11T13:00:08.948Z,100661.76
2019-05-11T13:02:38.771Z,100663.23
2019-05-11T13:05:08.634Z,100658.55
2019-05-11T13:07:39.227Z,100654.97
2019-05-11T13:10:08.868Z,100659.34
2019-05-11T13:12:38.625Z,100665.27
2019-05-11T13:15:08.376Z,100668.92
2019-05-11T13:17:40.582Z,100668.39
2019-05-11T13:20:09.106Z,100667.31
2019-05-11T13:22:38.670Z,100665.36
2019-05-11T13:25:08.543Z,100664.30
2019-05-11T13:27:38.721Z,100669.28
2019-05-11T13:30:10.729Z,100665.31
2019-05-11T13:32:39.445Z,100666.98
2019-05-11T13:35:09.277Z,100675.80
2019-05-11T13:37:38.614Z,100672.00
2019-05-11T13:40:08.219Z,100662.39
2019-05-11T13:42:58.320Z,100670.73
2019-05-11T13:45:28.243Z,100674.47
2019-05-11T13:47:59.343Z,100680.26
2019-05-11T13:50:29.622Z,100680.15
2019-05-11T13:52:58.556Z,100688.97
2019-05-11T13:55:28.417Z,100688.23
2019-05-11T13:57:57.837Z,100691.85
2019-05-11T14:00:28.826Z,100692.80
2019-05-11T14:02:59.056Z,100696.62
2019-05-11T14:05:28.482Z,100696.34
2019-05-11T14:07:58.727Z,100698.98
2019-05-11T14:10:28.208Z,100708.93
2019-05-11T14:12:58.163Z,100706.48
2019-05-11T14:15:28.099Z,100702.48
2019-05-11T14:18:05.735Z,100705.19
2019-05-11T14:20:28.889Z,100713.96
2019-05-11T14:22:58.484Z,100717.46
2019-05-11T14:25:28.058Z,100721.73
2019-05-11T14:27:59.387Z,100727.30
2019-05-11T14:30:28.233Z,100729.26
2019-05-11T14:32:58.080Z,100727.88
2019-05-11T14:35:27.959Z,100731.90
2019-05-11T14:37:58.781Z,100733.69
2019-05-11T14:40:28.174Z,100737.61
2019-05-11T14:42:58.061Z,100738.83
2019-05-11T14:45:28.779Z,100740.76
2019-05-11T14:47:58.256Z,100744.33
2019-05-11T14:50:28.167Z,100750.19
2019-05-11T14:52:58.088Z,100750.04
2019-05-11T14:55:28.855Z,100755.83
2019-05-11T14:57:58.476Z,100754.33
2019-05-11T15:00:29.011Z,100753.72
2019-05-11T15:02:58.542Z,100760.13
2019-05-11T15:05:28.308Z,100762.20
2019-05-11T15:07:58.194Z,100767.98
2019-05-11T15:10:27.891Z,100766.41
2019-05-11T15:12:59.140Z,100771.64
2019-05-11T15:15:28.128Z,100770.09
2019-05-11T15:17:58.166Z,100772.05
2019-05-11T15:20:28.498Z,100780.13
2019-05-11T15:22:58.141Z,100784.42
2019-05-11T15:25:28.852Z,100783.81
2019-05-11T15:27:58.416Z,100781.74
2019-05-11T15:30:28.701Z,100792.73
2019-05-11T15:32:58.421Z,100790.73
2019-05-11T15:35:28.425Z,100798.16
2019-05-11T15:37:58.281Z,100795.77
2019-05-11T15:40:27.931Z,100803.93
2019-05-11T15:42:58.513Z,100802.51
2019-05-11T15:45:27.830Z,100809.47
2019-05-11T15:47:58.686Z,100814.48
2019-05-11T15:50:29.096Z,100815.06
2019-05-11T15:52:58.360Z,100818.41
2019-05-11T15:55:27.865Z,100819.27
2019-05-11T15:57:56.678Z,100819.92
2019-05-11T16:00:27.270Z,100823.16
2019-05-11T16:02:57.798Z,100830.36
2019-05-11T16:05:28.128Z,100825.91
2019-05-11T16:08:01.416Z,100836.05
2019-05-11T16:10:27.845Z,100835.80
2019-05-11T16:12:58.556Z,100832.48
2019-05-11T16:15:27.807Z,100830.46
2019-05-11T16:17:57.774Z,100824.13
2019-05-11T16:20:28.511Z,100828.23
2019-05-11T16:22:56.998Z,100837.57
2019-05-11T16:25:27.523Z,100837.04
2019-05-11T16:27:56.207Z,100845.23
2019-05-11T16:30:24.890Z,100841.00
2019-05-11T16:32:53.558Z,100847.73
2019-05-11T16:35:22.303Z,100835.06
2019-05-11T16:37:51.120Z,100838.48
2019-05-11T16:40:21.109Z,100834.67
2019-05-11T16:42:49.904Z,100829.67
2019-05-11T16:45:19.315Z,100832.75
2019-05-11T16:47:48.516Z,100829.22
2019-05-11T16:50:18.264Z,100826.89
2019-05-11T16:52:48.127Z,100825.75
2019-05-11T16:55:18.383Z,100835.38
2019-05-11T16:57:48.397Z,100850.68
2019-05-11T17:00:17.888Z,100860.62
2019-05-11T17:02:48.887Z,100864.91
2019-05-11T17:05:26.073Z,100871.97
2019-05-11T17:07:48.290Z,100872.72
2019-05-11T17:10:18.072Z,100874.78
2019-05-11T17:12:48.289Z,100879.05
2019-05-11T17:15:18.571Z,100876.36
2019-05-11T17:17:48.663Z,100861.67
2019-05-11T17:20:18.681Z,100859.55
2019-05-11T17:22:48.285Z,100860.00
2019-05-11T17:25:19.352Z,100862.86
2019-05-11T17:27:48.649Z,100862.10
2019-05-11T17:30:19.198Z,100863.45
2019-05-11T17:32:49.509Z,100883.25
2019-05-11T17:35:18.530Z,100889.38
2019-05-11T17:37:48.449Z,100901.81
2019-05-11T17:40:22.354Z,100912.00
2019-05-11T17:42:48.604Z,100919.83
2019-05-11T17:45:18.946Z,100927.95
2019-05-11T17:47:47.855Z,100934.67
2019-05-11T17:50:19.066Z,100940.80
2019-05-11T17:52:47.954Z,100938.02
2019-05-11T17:55:18.431Z,100934.56
2019-05-11T17:57:49.703Z,100937.22
2019-05-11T18:00:20.162Z,100948.64
2019-05-11T18:02:49.225Z,100948.58
2019-05-11T18:05:18.189Z,100947.27
2019-05-11T18:07:47.168Z,100943.17
2019-05-11T18:10:18.252Z,100949.70
2019-05-11T18:12:48.567Z,100967.30
2019-05-11T18:15:18.578Z,100968.95
2019-05-11T18:17:48.503Z,100972.83
2019-05-11T18:20:21.443Z,100973.13
2019-05-11T18:22:49.247Z,100988.92
2019-05-11T18:25:18.568Z,100989.16
2019-05-11T18:27:48.181Z,100986.23
2019-05-11T18:30:17.459Z,100982.41
2019-05-11T18:32:48.647Z,100986.05
2019-05-11T18:35:19.109Z,100986.44
2019-05-11T18:37:47.891Z,100983.75
2019-05-11T18:40:18.622Z,100992.67
2019-05-11T18:42:48.827Z,101005.27
2019-05-11T18:45:18.947Z,101001.14
2019-05-11T18:47:48.965Z,101011.97
2019-05-11T18:50:29.883Z,101021.59
2019-05-11T18:52:49.218Z,101024.95
2019-05-11T18:55:19.042Z,101025.13
2019-05-11T18:57:49.078Z,101031.51
2019-05-11T19:00:18.483Z,101033.52
2019-05-11T19:02:49.522Z,101034.66
2019-05-11T19:05:18.176Z,101048.77
2019-05-11T19:07:48.244Z,101048.20
2019-05-11T19:10:17.152Z,101054.55
2019-05-11T19:12:48.490Z,101069.92
2019-05-11T19:15:18.596Z,101071.72
2019-05-11T19:17:48.895Z,101073.23
2019-05-11T19:20:17.825Z,101080.27
2019-05-11T19:22:46.935Z,101075.80
2019-05-11T19:25:17.966Z,101090.28
2019-05-11T19:27:50.313Z,101095.38
2019-05-11T19:30:18.450Z,101092.05
2019-05-11T19:32:48.734Z,101093.85
2019-05-11T19:35:20.906Z,101099.34
2019-05-11T19:37:48.819Z,101099.16
2019-05-11T19:40:17.814Z,101116.70
2019-05-11T19:42:54.470Z,101117.09
2019-05-11T19:45:23.806Z,101133.00
2019-05-11T19:47:52.641Z,101142.37
2019-05-11T19:50:21.351Z,101133.45
2019-05-11T19:52:50.188Z,101136.58
2019-05-11T19:55:19.025Z,101147.91
2019-05-11T19:57:48.391Z,101152.19
2019-05-11T20:00:18.678Z,101153.52
2019-05-11T20:02:47.551Z,101144.70
2019-05-11T20:05:18.427Z,101146.03
2019-05-11T20:07:48.726Z,101138.59
2019-05-11T20:10:18.870Z,101141.98
2019-05-11T20:12:48.482Z,101151.45
2019-05-11T20:15:18.892Z,101155.30
2019-05-11T20:17:48.930Z,101151.61
2019-05-11T20:20:18.648Z,101147.47
2019-05-11T20:22:48.437Z,101158.81
2019-05-11T20:25:18.443Z,101164.47
2019-05-11T20:27:48.624Z,101158.41
2019-05-11T20:30:18.793Z,101164.31
2019-05-11T20:32:48.850Z,101161.45
2019-05-11T20:35:17.998Z,101171.53
2019-05-11T20:37:46.744Z,101168.70
2019-05-11T20:40:15.485Z,101179.33
2019-05-11T20:42:44.204Z,101176.70
2019-05-11T20:45:13.142Z,101179.45
2019-05-11T20:47:41.853Z,101190.83
2019-05-11T20:50:10.787Z,101198.93
2019-05-11T20:52:41.066Z,101208.43
2019-05-11T20:55:10.197Z,101204.91
2019-05-11T20:57:39.639Z,101205.38
2019-05-11T21:00:10.408Z,101207.84
2019-05-11T21:02:39.088Z,101212.27
2019-05-11T21:05:09.066Z,101218.23
2019-05-11T21:07:38.959Z,101228.50
2019-05-11T21:10:08.898Z,101231.48
2019-05-11T21:12:38.715Z,101239.66
2019-05-11T21:15:11.505Z,101246.55
2019-05-11T21:17:40.237Z,101248.70
2019-05-11T21:20:09.690Z,101248.50
2019-05-11T21:22:40.676Z,101254.20
2019-05-11T21:25:09.685Z,101260.37
2019-05-11T21:27:38.838Z,101264.18
2019-05-11T21:30:11.316Z,101274.45
2019-05-11T21:32:42.982Z,101268.25
2019-05-11T21:35:11.816Z,101268.20
2019-05-11T21:37:40.730Z,101270.06
2019-05-11T21:40:10.282Z,101273.51
2019-05-11T21:42:39.351Z,101283.54
2019-05-11T21:45:09.755Z,101281.46
2019-05-11T21:47:39.335Z,101289.19
2019-05-11T21:50:09.508Z,101296.14
2019-05-11T21:52:38.858Z,101300.63
2019-05-11T21:55:09.702Z,101300.28
2019-05-11T21:57:38.727Z,101300.04
2019-05-11T22:00:09.734Z,101307.31
2019-05-11T22:02:38.946Z,101310.38
2019-05-11T22:05:08.877Z,101308.86
2019-05-11T22:07:41.622Z,101307.22
2019-05-11T22:10:09.983Z,101309.86
2019-05-11T22:12:39.459Z,101306.15
2019-05-11T22:15:09.725Z,101302.98
2019-05-11T22:17:39.615Z,101306.48
2019-05-11T22:20:09.900Z,101314.84
2019-05-11T22:22:39.370Z,101314.16
2019-05-11T22:25:08.860Z,101319.30
2019-05-11T22:27:38.810Z,101322.59
2019-05-11T22:30:11.376Z,101328.48
2019-05-11T22:32:40.295Z,101333.00
2019-05-11T22:35:08.943Z,101341.48
2019-05-11T22:37:38.743Z,101351.71
2019-05-11T22:40:09.645Z,101353.88
2019-05-11T22:42:38.656Z,101358.11
2019-05-11T22:45:08.651Z,101372.87
2019-05-11T22:47:39.157Z,101370.58
2019-05-11T22:50:09.361Z,101376.16
2019-05-11T22:52:40.176Z,101377.12
2019-05-11T22:55:11.927Z,101377.24
2019-05-11T22:57:40.147Z,101380.80
2019-05-11T23:00:11.222Z,101386.33
2019-05-11T23:02:39.865Z,101389.17
2019-05-11T23:05:09.091Z,101396.00
2019-05-11T23:07:41.316Z,101395.42
2019-05-11T23:10:09.773Z,101403.72
2019-05-11T23:12:38.706Z,101410.61
2019-05-11T23:15:12.738Z,101413.53
2019-05-11T23:17:41.974Z,101420.13
2019-05-11T23:20:11.006Z,101421.23
2019-05-11T23:22:56.433Z,101430.69
2019-05-11T23:25:11.693Z,101432.32
2019-05-11T23:27:40.319Z,101427.98
2019-05-11T23:30:09.066Z,101435.36
2019-05-11T23:32:37.764Z,101434.59
2019-05-11T23:35:09.243Z,101435.98
2019-05-11T23:37:38.645Z,101436.94
2019-05-11T23:40:09.691Z,101439.64
2019-05-11T23:42:38.406Z,101440.17
2019-05-11T23:45:08.515Z,101440.69
2019-05-11T23:47:39.294Z,101445.57
2019-05-11T23:50:08.820Z,101437.03
2019-05-11T23:52:38.354Z,101442.08
2019-05-11T23:55:08.772Z,101444.82
2019-05-11T23:57:38.078Z,101450.45
